Willow River, Minnesota
Current Conditions -  °F | °C
As of 4:34 PM on Monday 26 Jan 2015 (Local Time) from KMZH Reporting Station
Overcast Overcast  
Wind Chill: 29°   Ceiling: 3400
Heat Index: 36°   Visibility: 10mi
Dew Point: 32°   Wind: 8mph
Humidity: 87%   Direction: 320°NW
Pressure: 29.75"   Gusts: NA
Location:  46.32°N, 92.84°W
Report Text: KMZH 262234Z AUTO 32007KT 10SM SCT016 SCT022 OVC034 02/00 A2975 RMK AO2
Loading
Personal Weather Stations






























Interactive Weather Map New forecast layout! Learn more

10-Day Weather Forecast

Advertisements
Track Severe Weather on mobile